Terminal Aerodrome Forecast
Issued by NWS Caribou, ME

Home | Current Version | Previous Version | Text Only | Print | Product List | Glossary On
Versions: 1 2 3 4 5 6 7 8 9 10 11 12 13 14 15 16 17 18 19 20 21 22
000
FTUS41 KCAR 011100
TAFBGR
TAF
KBGR 011120Z 0112/0212 03007KT P6SM BKN020
     FM011400 03008KT P6SM SCT025 BKN040
     FM011700 04007KT P6SM OVC060
     FM012000 04006KT P6SM BKN040
     FM020600 02009KT P6SM OVC025=

USA.gov is the U.S. government's official web portal to all federal, state and local government web resources and services.